Time;durP1;ratioP1;P1;durP2;ratioP2;P2;SDS_P1;SDS_P2;PMS_P1;PMS_P2;Temp;Humidity;BMP_temperature;BMP_pressure;BME280_temperature;BME280_humidity;BME280_pressure;Samples;Min_cycle;Max_cycle;Signal;HPM_P1;HPM_P2
2022/05/14 00:05:32;;;;;;;11.05;3.12;;;13.70;99.90;;;;;;6647164;88;20162;-82
2022/05/14 00:15:39;;;;;;;8.65;2.97;;;13.70;99.90;;;;;;6646610;88;20184;-82
2022/05/14 00:25:41;;;;;;;7.35;2.58;;;13.90;99.90;;;;;;6660952;88;20175;-82
2022/05/14 00:35:42;;;;;;;5.15;2.78;;;13.90;99.90;;;;;;6660798;88;20940;-82
2022/05/14 00:45:51;;;;;;;5.47;2.67;;;14.00;99.90;;;;;;6661156;88;20228;-82
2022/05/14 00:55:55;;;;;;;4.65;2.33;;;13.80;99.90;;;;;;6661093;88;20168;-82
2022/05/14 01:05:59;;;;;;;6.87;2.55;;;13.70;99.90;;;;;;6660509;88;20940;-83
2022/05/14 01:16:02;;;;;;;6.45;2.33;;;13.60;99.90;;;;;;6659909;88;20233;-83
2022/05/14 01:26:29;;;;;;;6.35;2.22;;;13.50;99.90;;;;;;6631897;88;20173;-81
2022/05/14 01:36:29;;;;;;;5.22;2.08;;;13.50;99.90;;;;;;6628910;88;20197;-82
2022/05/14 01:46:30;;;;;;;7.07;2.05;;;13.00;99.90;;;;;;6630739;88;20253;-82
2022/05/14 01:56:31;;;;;;;7.12;2.20;;;13.10;99.90;;;;;;6631435;88;20165;-82
2022/05/14 02:06:32;;;;;;;4.60;2.37;;;12.90;99.90;;;;;;6631525;88;20179;-82
2022/05/14 02:16:33;;;;;;;5.62;2.40;;;12.80;99.90;;;;;;6629440;88;20193;-82
2022/05/14 02:26:34;;;;;;;5.22;2.60;;;12.50;99.90;;;;;;6628994;88;20250;-83
2022/05/14 02:36:35;;;;;;;4.35;2.50;;;12.40;99.90;;;;;;6629145;88;20226;-83
2022/05/14 02:46:36;;;;;;;5.95;2.03;;;12.00;99.90;;;;;;6630771;88;20865;-82
2022/05/14 02:56:36;;;;;;;6.45;2.10;;;12.10;99.90;;;;;;6630791;88;20165;-83
2022/05/14 03:06:37;;;;;;;7.80;2.83;;;11.80;99.90;;;;;;6630924;88;20288;-84
2022/05/14 03:16:38;;;;;;;3.87;2.17;;;12.00;99.90;;;;;;6630947;88;20185;-83
2022/05/14 03:26:40;;;;;;;4.75;1.92;;;11.80;99.90;;;;;;6630950;88;20886;-83
2022/05/14 03:36:41;;;;;;;6.57;2.60;;;11.50;99.90;;;;;;6630917;88;20172;-82
2022/05/14 03:46:42;;;;;;;5.55;2.08;;;11.40;99.90;;;;;;6630372;88;20151;-82
2022/05/14 03:56:43;;;;;;;3.85;1.77;;;11.30;99.90;;;;;;6630750;88;20162;-82
2022/05/14 04:06:43;;;;;;;7.72;1.75;;;11.10;99.90;;;;;;6644564;88;20191;-83
2022/05/14 04:16:44;;;;;;;5.78;1.80;;;10.80;99.90;;;;;;6627755;88;20402;-82
2022/05/14 04:26:45;;;;;;;4.47;1.92;;;10.60;99.90;;;;;;6627656;88;20251;-82
2022/05/14 04:36:45;;;;;;;3.90;1.70;;;10.70;99.90;;;;;;6627891;88;21029;-83
2022/05/14 04:46:46;;;;;;;4.27;1.77;;;10.40;99.90;;;;;;6628193;88;20163;-83
2022/05/14 04:56:47;;;;;;;6.07;1.85;;;10.70;99.90;;;;;;6629956;88;20498;-82
2022/05/14 05:06:47;;;;;;;6.18;2.00;;;10.70;99.90;;;;;;6630262;88;20214;-83
2022/05/14 05:16:48;;;;;;;3.50;1.85;;;10.90;99.90;;;;;;6627591;89;20170;-83
2022/05/14 05:26:49;;;;;;;4.03;1.80;;;10.90;99.90;;;;;;6627364;89;20189;-81
2022/05/14 05:36:49;;;;;;;3.83;1.80;;;11.00;99.90;;;;;;6627143;89;20217;-81
2022/05/14 05:46:50;;;;;;;5.75;2.20;;;11.40;99.90;;;;;;6628641;88;20601;-82
2022/05/14 05:56:57;;;;;;;4.93;2.10;;;11.60;99.90;;;;;;6629095;88;20166;-82
2022/05/14 06:06:58;;;;;;;7.82;2.72;;;12.10;99.90;;;;;;6610426;88;20198;-83
2022/05/14 06:16:58;;;;;;;10.13;2.70;;;12.70;99.90;;;;;;6610615;88;20171;-85
2022/05/14 06:26:59;;;;;;;4.95;2.20;;;13.30;99.90;;;;;;6578020;89;20238;-84
2022/05/14 06:37:00;;;;;;;5.45;2.00;;;14.10;99.90;;;;;;6606165;89;20183;-86
2022/05/14 07:19:08;;;;;;;4.90;2.17;;;17.50;99.90;;;;;;6682557;87;20148;-83
2022/05/14 07:29:12;;;;;;;5.72;1.60;;;17.90;99.90;;;;;;6632423;79;20231;-78
2022/05/14 07:39:13;;;;;;;5.57;1.53;;;18.40;99.90;;;;;;6613924;88;20240;-77
2022/05/14 07:49:15;;;;;;;5.10;1.58;;;18.40;99.60;;;;;;6613889;89;20317;-77
2022/05/14 07:59:15;;;;;;;4.47;1.62;;;19.20;98.00;;;;;;6615219;89;20190;-79
2022/05/14 08:09:16;;;;;;;4.47;1.62;;;19.20;97.30;;;;;;6621463;88;22552;-76
2022/05/14 08:19:17;;;;;;;4.20;1.50;;;19.90;96.10;;;;;;6621782;89;20758;-79
2022/05/14 08:29:19;;;;;;;3.75;1.40;;;19.50;96.80;;;;;;6625077;89;20215;-78
2022/05/14 08:39:20;;;;;;;5.32;1.85;;;19.90;96.20;;;;;;6624895;89;20217;-80
2022/05/14 08:49:31;;;;;;;5.78;1.60;;;20.60;97.60;;;;;;6624043;89;21092;-79
2022/05/14 08:59:53;;;;;;;6.10;1.50;;;21.90;95.20;;;;;;6614776;89;20312;-77
2022/05/14 09:09:56;;;;;;;5.22;1.67;;;22.30;94.50;;;;;;6612743;88;20276;-76
2022/05/14 09:19:59;;;;;;;3.93;1.30;;;23.40;92.30;;;;;;6610994;88;20470;-77
2022/05/14 09:30:06;;;;;;;5.03;1.40;;;21.30;92.30;;;;;;6617974;88;20772;-77
2022/05/14 09:40:26;;;;;;;3.95;1.50;;;22.50;92.00;;;;;;6613288;89;20603;-75
2022/05/14 09:50:33;;;;;;;3.53;1.50;;;23.10;90.10;;;;;;6615201;89;20201;-77
2022/05/14 10:00:47;;;;;;;4.62;1.35;;;23.50;87.50;;;;;;6614536;89;20255;-77
2022/05/14 10:11:16;;;;;;;4.05;1.30;;;23.90;86.30;;;;;;6614326;89;20197;-77
2022/05/14 10:21:34;;;;;;;5.35;1.80;;;24.50;86.70;;;;;;6614065;89;20202;-77
2022/05/14 10:31:57;;;;;;;5.30;1.58;;;26.50;83.70;;;;;;6605618;89;20793;-77
2022/05/14 10:42:09;;;;;;;4.87;1.30;;;26.00;81.00;;;;;;6610633;89;20197;-78
2022/05/14 10:52:15;;;;;;;5.53;1.33;;;26.60;75.40;;;;;;6617214;89;20229;-77
2022/05/14 11:02:22;;;;;;;8.02;1.40;;;26.30;76.70;;;;;;6622184;89;20178;-77
2022/05/14 11:12:22;;;;;;;5.93;1.70;;;25.60;74.40;;;;;;6633860;89;20219;-77
2022/05/14 11:22:27;;;;;;;6.78;1.60;;;26.30;73.40;;;;;;6627982;88;20202;-78
2022/05/14 11:32:48;;;;;;;4.72;1.50;;;27.50;72.50;;;;;;6621663;89;20256;-78
2022/05/14 11:42:52;;;;;;;4.62;1.40;;;27.50;72.60;;;;;;6615927;89;20174;-78
2022/05/14 11:53:07;;;;;;;4.60;1.50;;;29.50;70.40;;;;;;6623015;89;20609;-77
2022/05/14 12:03:13;;;;;;;6.07;1.77;;;29.80;68.20;;;;;;6624106;88;20580;-78
2022/05/14 12:13:28;;;;;;;4.20;1.60;;;30.40;67.90;;;;;;6611033;89;20189;-77
2022/05/14 12:23:35;;;;;;;8.55;1.65;;;30.60;65.70;;;;;;6644923;88;22089;-79
2022/05/14 12:33:37;;;;;;;5.37;1.70;;;30.40;65.60;;;;;;6648302;88;20264;-79
2022/05/14 12:43:43;;;;;;;5.12;1.40;;;31.20;63.50;;;;;;6649148;88;20204;-79
2022/05/14 12:54:24;;;;;;;8.95;2.15;;;30.50;65.40;;;;;;6653399;78;20231;-80
2022/05/14 13:04:51;;;;;;;8.55;2.03;;;30.20;63.90;;;;;;6686369;87;20264;-79
2022/05/14 13:14:56;;;;;;;5.40;1.95;;;31.00;62.80;;;;;;6687179;88;20637;-80
2022/05/14 13:24:59;;;;;;;7.75;1.95;;;31.40;62.80;;;;;;6686128;88;20194;-80
2022/05/14 13:46:07;;;;;;;6.87;1.90;;;30.80;61.30;;;;;;6632739;89;20180;-80
2022/05/14 13:56:28;;;;;;;7.70;2.05;;;30.50;61.30;;;;;;6629838;89;20238;-81
2022/05/14 14:07:10;;;;;;;5.57;2.00;;;31.00;62.30;;;;;;6678927;78;20218;-80
2022/05/14 14:17:13;;;;;;;10.03;2.50;;;31.10;62.30;;;;;;6759687;88;20231;-84
2022/05/14 14:27:14;;;;;;;5.68;2.05;;;31.10;61.20;;;;;;6754313;88;20164;-81
2022/05/14 14:37:15;;;;;;;5.90;2.07;;;30.60;62.00;;;;;;6756786;88;20225;-81
2022/05/14 14:47:15;;;;;;;8.95;3.10;;;30.20;61.20;;;;;;6750747;88;20251;-82
2022/05/14 14:57:16;;;;;;;4.55;1.73;;;30.00;61.40;;;;;;6756857;88;20611;-82
2022/05/14 15:07:17;;;;;;;10.23;2.30;;;30.00;61.80;;;;;;6755898;88;21083;-81
2022/05/14 15:17:18;;;;;;;6.93;1.95;;;29.80;61.30;;;;;;6754417;88;20208;-82
2022/05/14 15:27:19;;;;;;;9.48;2.08;;;29.30;62.70;;;;;;6753328;88;20722;-81
2022/05/14 15:37:20;;;;;;;6.47;2.33;;;29.50;61.70;;;;;;6750584;88;20250;-80
2022/05/14 15:47:24;;;;;;;7.32;1.85;;;29.40;61.30;;;;;;6739188;88;20236;-79
2022/05/14 15:57:24;;;;;;;6.35;1.83;;;28.90;61.70;;;;;;6738349;88;20185;-79
2022/05/14 16:07:25;;;;;;;5.50;1.80;;;29.00;61.20;;;;;;6739154;88;20205;-78
2022/05/14 16:17:27;;;;;;;6.95;1.98;;;29.20;60.00;;;;;;6721730;88;20241;-79
2022/05/14 16:27:27;;;;;;;7.55;1.90;;;28.40;60.90;;;;;;6720877;88;20276;-80
2022/05/14 16:37:28;;;;;;;8.35;2.17;;;28.60;61.40;;;;;;6742752;88;20212;-79
2022/05/14 16:47:29;;;;;;;8.07;2.08;;;27.60;62.50;;;;;;6729827;88;20620;-77
2022/05/14 16:57:30;;;;;;;9.55;3.10;;;27.00;62.60;;;;;;6725625;88;20225;-76
2022/05/14 17:07:31;;;;;;;9.85;1.92;;;26.80;63.80;;;;;;6728772;88;20228;-77
2022/05/14 17:17:32;;;;;;;8.45;2.30;;;26.60;64.40;;;;;;6726975;88;20226;-77
2022/05/14 17:27:34;;;;;;;5.45;2.30;;;26.40;64.80;;;;;;6729639;88;20289;-77
2022/05/14 17:47:54;;;;;;;7.37;2.70;;;27.00;63.80;;;;;;6731259;88;20173;-77
2022/05/14 17:57:56;;;;;;;6.28;2.28;;;25.50;65.50;;;;;;6732267;88;20265;-77
2022/05/14 18:07:56;;;;;;;7.60;2.60;;;24.70;66.30;;;;;;6724608;88;20204;-78
2022/05/14 18:17:57;;;;;;;6.97;2.10;;;24.10;68.00;;;;;;6742606;88;20204;-80
2022/05/14 18:28:01;;;;;;;9.13;2.72;;;23.80;68.60;;;;;;6744631;88;20182;-76
2022/05/14 18:38:07;;;;;;;7.60;3.00;;;23.50;70.80;;;;;;6730008;88;20342;-80
2022/05/14 18:48:08;;;;;;;12.00;3.33;;;23.30;71.50;;;;;;6728062;88;20191;-77
2022/05/14 18:58:09;;;;;;;5.72;2.47;;;23.10;71.60;;;;;;6731333;88;20206;-77
2022/05/14 19:08:10;;;;;;;8.68;2.78;;;22.80;73.00;;;;;;6729737;88;20963;-77
2022/05/14 19:18:13;;;;;;;11.38;3.20;;;22.50;74.20;;;;;;6731437;88;20372;-77
2022/05/14 19:28:14;;;;;;;9.75;2.72;;;22.10;74.30;;;;;;6734959;88;20180;-76
2022/05/14 19:38:21;;;;;;;8.40;3.00;;;21.90;75.00;;;;;;6731238;88;20641;-78
2022/05/14 19:48:22;;;;;;;12.57;3.10;;;21.50;77.10;;;;;;6734666;88;20264;-79
2022/05/14 19:58:22;;;;;;;7.65;3.50;;;21.10;77.90;;;;;;6738238;88;20212;-77
2022/05/14 20:08:23;;;;;;;7.20;3.13;;;20.50;80.20;;;;;;6733509;88;20253;-78
2022/05/14 20:28:49;;;;;;;8.77;4.12;;;19.70;84.00;;;;;;6731730;88;20216;-77
2022/05/14 20:38:50;;;;;;;10.02;5.30;;;19.70;83.90;;;;;;6732208;88;20200;-78
2022/05/14 20:48:51;;;;;;;12.25;5.53;;;19.30;86.50;;;;;;6726392;88;20304;-78
2022/05/14 20:58:53;;;;;;;13.62;6.35;;;19.00;88.30;;;;;;6732303;88;20209;-77
2022/05/14 21:08:53;;;;;;;10.55;4.70;;;19.00;90.40;;;;;;6730323;88;20386;-77
2022/05/14 21:18:57;;;;;;;12.23;5.20;;;18.60;91.40;;;;;;6724098;88;20341;-77
2022/05/14 21:28:58;;;;;;;14.20;6.30;;;18.40;92.80;;;;;;6730767;88;20195;-76
2022/05/14 21:39:00;;;;;;;13.25;6.15;;;18.40;94.80;;;;;;6731583;88;20193;-78
2022/05/14 21:49:09;;;;;;;9.93;5.07;;;18.10;96.20;;;;;;6721996;88;20196;-76
2022/05/14 21:59:11;;;;;;;11.90;5.10;;;17.60;98.30;;;;;;6730660;88;20185;-78
2022/05/14 22:09:12;;;;;;;8.63;5.03;;;17.30;99.90;;;;;;6732185;88;20235;-76
2022/05/14 22:19:14;;;;;;;12.37;6.10;;;17.20;99.90;;;;;;6730538;88;20681;-77
2022/05/14 22:29:15;;;;;;;14.95;8.20;;;17.00;99.90;;;;;;6738032;88;20197;-78
2022/05/14 22:49:18;;;;;;;13.70;8.52;;;16.60;99.90;;;;;;6695032;88;20253;-79
2022/05/14 22:59:21;;;;;;;14.15;7.93;;;16.50;99.90;;;;;;6696147;88;20716;-79
2022/05/14 23:09:21;;;;;;;13.77;8.23;;;16.10;99.90;;;;;;6698145;88;20322;-80
2022/05/14 23:19:22;;;;;;;15.10;10.60;;;16.00;99.90;;;;;;6702886;88;20372;-80
2022/05/14 23:29:22;;;;;;;12.35;8.15;;;15.90;99.90;;;;;;6703625;88;20317;-80
2022/05/14 23:39:23;;;;;;;11.88;6.43;;;15.80;99.90;;;;;;6709619;88;20182;-80
2022/05/14 23:49:23;;;;;;;9.38;5.30;;;15.60;99.90;;;;;;6712463;88;20206;-79
